createdAt,value
2023-05-14T00:04:14.416Z,9.70
2023-05-14T00:09:17.451Z,11.90
2023-05-14T00:14:20.357Z,11.30
2023-05-14T00:19:23.319Z,11.60
2023-05-14T00:24:26.294Z,11.90
2023-05-14T00:29:29.410Z,12.60
2023-05-14T00:34:32.267Z,11.40
2023-05-14T00:39:35.230Z,10.60
2023-05-14T00:44:38.068Z,11.80
2023-05-14T00:49:42.170Z,13.30
2023-05-14T00:54:48.243Z,12.50
2023-05-14T00:59:51.131Z,14.00
2023-05-14T01:04:54.909Z,13.90
2023-05-14T01:10:08.550Z,15.10
2023-05-14T01:15:21.358Z,15.30
2023-05-14T01:20:24.480Z,12.90
2023-05-14T01:25:27.852Z,12.00
2023-05-14T01:30:36.729Z,12.80
2023-05-14T01:35:40.663Z,12.10
2023-05-14T01:40:46.070Z,13.80
2023-05-14T01:45:48.880Z,13.00
2023-05-14T01:50:52.066Z,11.50
2023-05-14T01:55:54.885Z,11.90
2023-05-14T02:00:57.874Z,14.20
2023-05-14T02:06:00.913Z,12.10
2023-05-14T02:11:03.763Z,14.00
2023-05-14T02:16:07.058Z,13.20
2023-05-14T02:21:09.931Z,13.70
2023-05-14T02:26:12.881Z,15.00
2023-05-14T02:31:17.706Z,15.50
2023-05-14T02:36:20.651Z,15.20
2023-05-14T02:41:23.486Z,14.70
2023-05-14T02:46:26.450Z,13.80
2023-05-14T02:51:29.462Z,15.20
2023-05-14T02:56:32.250Z,14.50
2023-05-14T03:01:35.136Z,14.30
2023-05-14T03:06:38.325Z,14.00
2023-05-14T03:11:41.361Z,15.30
2023-05-14T03:16:44.246Z,14.50
2023-05-14T03:21:47.248Z,14.70
2023-05-14T03:26:50.032Z,14.70
2023-05-14T03:31:54.427Z,12.80
2023-05-14T03:36:57.669Z,11.10
2023-05-14T03:42:00.674Z,10.50
2023-05-14T03:47:03.917Z,10.40
2023-05-14T03:52:06.940Z,10.00
2023-05-14T03:57:09.859Z,10.10
2023-05-14T04:02:12.915Z,9.60
2023-05-14T04:07:15.840Z,8.90
2023-05-14T04:12:18.775Z,10.00
2023-05-14T04:17:21.602Z,9.10
2023-05-14T04:22:24.490Z,9.40
2023-05-14T04:27:28.723Z,9.20
2023-05-14T04:32:31.659Z,9.30
2023-05-14T04:37:34.534Z,9.50
2023-05-14T04:42:37.673Z,9.70
2023-05-14T04:47:42.451Z,8.90
2023-05-14T04:52:45.713Z,8.50
2023-05-14T04:57:49.308Z,9.10
2023-05-14T05:02:52.342Z,9.30
2023-05-14T05:07:55.523Z,8.50
2023-05-14T05:12:58.357Z,7.90
2023-05-14T05:18:01.259Z,8.70
2023-05-14T05:23:04.160Z,8.50
2023-05-14T05:28:07.127Z,8.40
2023-05-14T05:33:10.127Z,7.90
2023-05-14T05:38:15.114Z,6.80
2023-05-14T05:43:18.107Z,7.90
2023-05-14T05:48:21.826Z,7.30
2023-05-14T05:53:24.655Z,7.30
2023-05-14T05:58:27.488Z,7.30
2023-05-14T06:03:30.400Z,6.00
2023-05-14T06:08:34.267Z,6.40
2023-05-14T06:13:37.639Z,5.90
2023-05-14T06:18:41.020Z,6.20
2023-05-14T06:23:44.470Z,6.30
2023-05-14T06:28:47.783Z,6.10
2023-05-14T06:33:50.735Z,5.00
2023-05-14T06:38:53.593Z,5.40
2023-05-14T06:43:56.475Z,5.40
2023-05-14T06:48:59.734Z,5.90
2023-05-14T06:54:02.714Z,5.20
2023-05-14T06:59:05.634Z,4.50
2023-05-14T07:04:08.541Z,4.30
2023-05-14T07:09:11.401Z,3.80
2023-05-14T07:14:14.325Z,3.80
2023-05-14T07:19:17.313Z,3.80
2023-05-14T07:24:20.382Z,3.90
2023-05-14T07:29:25.523Z,3.50
2023-05-14T07:34:28.450Z,3.20
2023-05-14T07:39:31.377Z,3.50
2023-05-14T07:44:34.157Z,2.50
2023-05-14T07:49:37.051Z,2.60
2023-05-14T07:54:39.909Z,2.60
2023-05-14T07:59:42.776Z,2.40
2023-05-14T08:04:45.740Z,2.50
2023-05-14T08:09:48.646Z,2.30
2023-05-14T08:14:52.134Z,2.10
2023-05-14T08:19:54.988Z,2.00
2023-05-14T08:24:57.820Z,2.30
2023-05-14T08:30:00.845Z,2.40
2023-05-14T08:35:04.654Z,2.30
2023-05-14T08:40:09.338Z,1.90
2023-05-14T08:45:27.445Z,2.00
2023-05-14T08:50:31.160Z,2.20
2023-05-14T08:55:36.662Z,2.20
2023-05-14T09:00:41.312Z,1.80
2023-05-14T09:05:45.948Z,2.00
2023-05-14T09:10:48.924Z,2.30
2023-05-14T09:15:53.278Z,2.00
2023-05-14T09:20:56.434Z,2.10
2023-05-14T09:25:59.361Z,2.10
2023-05-14T09:31:03.398Z,2.20
2023-05-14T09:36:07.086Z,2.10
2023-05-14T09:41:10.895Z,2.40
2023-05-14T09:46:14.694Z,2.10
2023-05-14T09:51:18.278Z,2.00
2023-05-14T09:56:22.178Z,1.70
2023-05-14T10:01:26.916Z,1.80
2023-05-14T10:06:37.442Z,1.60
2023-05-14T10:11:45.688Z,1.80
2023-05-14T10:16:51.857Z,1.80
2023-05-14T10:22:07.188Z,1.80
2023-05-14T10:27:10.572Z,2.00
2023-05-14T10:32:14.993Z,1.80
2023-05-14T10:37:26.081Z,1.70
2023-05-14T10:42:45.232Z,1.70
2023-05-14T10:47:48.982Z,2.10
2023-05-14T10:52:52.918Z,1.70
2023-05-14T10:57:59.244Z,1.70
2023-05-14T11:03:06.536Z,2.10
2023-05-14T11:08:12.516Z,2.30
2023-05-14T11:13:18.958Z,1.90
2023-05-14T11:18:36.971Z,1.60
2023-05-14T11:23:39.795Z,1.90
2023-05-14T11:28:42.692Z,2.00
2023-05-14T11:33:45.758Z,1.80
2023-05-14T11:38:51.896Z,2.20
2023-05-14T11:43:55.032Z,1.80
2023-05-14T11:48:57.824Z,1.80
2023-05-14T11:54:00.758Z,1.70
2023-05-14T11:59:03.572Z,1.70
2023-05-14T12:04:06.748Z,1.60
2023-05-14T12:09:13.034Z,2.70
2023-05-14T12:14:21.775Z,1.50
2023-05-14T12:19:25.972Z,1.50
2023-05-14T12:24:29.555Z,1.40
2023-05-14T12:29:37.933Z,1.80
2023-05-14T12:34:40.798Z,1.50
2023-05-14T12:39:43.745Z,1.90
2023-05-14T12:44:46.730Z,1.90
2023-05-14T12:49:49.949Z,1.70
2023-05-14T12:54:53.037Z,2.00
2023-05-14T12:59:57.418Z,2.00
2023-05-14T13:05:07.850Z,1.30
2023-05-14T13:10:18.965Z,1.60
2023-05-14T13:15:23.499Z,1.50
2023-05-14T13:20:27.897Z,1.70
2023-05-14T13:25:30.977Z,1.60
2023-05-14T13:30:33.818Z,1.70
2023-05-14T13:35:36.795Z,1.70
2023-05-14T13:40:39.601Z,2.10
2023-05-14T13:45:42.616Z,1.40
2023-05-14T13:50:45.534Z,2.20
2023-05-14T13:55:50.346Z,1.60
2023-05-14T14:00:54.007Z,1.80
2023-05-14T14:05:56.931Z,1.30
2023-05-14T14:11:00.387Z,1.40
2023-05-14T14:16:03.680Z,1.60
2023-05-14T14:21:06.759Z,1.60
2023-05-14T14:26:09.713Z,1.50
2023-05-14T14:31:13.342Z,1.50
2023-05-14T14:36:16.326Z,1.20
2023-05-14T14:41:19.311Z,1.70
2023-05-14T14:46:22.370Z,1.60
2023-05-14T14:51:25.516Z,1.70
2023-05-14T14:56:28.341Z,1.60
2023-05-14T15:01:31.510Z,1.30
2023-05-14T15:06:34.571Z,1.20
2023-05-14T15:11:37.776Z,1.20
2023-05-14T15:16:42.086Z,1.50
2023-05-14T15:21:45.259Z,1.30
2023-05-14T15:26:50.567Z,1.20
2023-05-14T15:31:57.945Z,1.50
2023-05-14T15:37:03.082Z,1.40
2023-05-14T15:42:06.879Z,1.20
2023-05-14T15:47:09.685Z,1.60
2023-05-14T15:52:12.757Z,1.60
2023-05-14T15:57:17.914Z,1.30
2023-05-14T16:02:22.893Z,2.00
2023-05-14T16:07:25.930Z,2.40
2023-05-14T16:12:28.881Z,2.40
2023-05-14T16:17:32.889Z,2.50
2023-05-14T16:22:36.649Z,2.50
2023-05-14T16:27:39.573Z,2.00
2023-05-14T16:32:42.676Z,1.50
2023-05-14T16:37:45.997Z,2.10
2023-05-14T16:42:49.481Z,2.00
2023-05-14T16:47:52.709Z,1.60
2023-05-14T16:52:55.767Z,4.50
2023-05-14T16:57:58.680Z,5.90
2023-05-14T17:03:02.503Z,1.90
2023-05-14T17:08:05.934Z,2.00
2023-05-14T17:13:08.881Z,2.70
2023-05-14T17:18:29.816Z,3.40
2023-05-14T17:23:33.557Z,1.70
2023-05-14T17:28:36.468Z,2.10
2023-05-14T17:33:39.362Z,3.70
2023-05-14T17:38:42.363Z,2.90
2023-05-14T17:43:45.358Z,2.80
2023-05-14T17:48:48.267Z,3.20
2023-05-14T17:53:51.251Z,3.80
2023-05-14T17:58:54.218Z,3.80
2023-05-14T18:03:57.347Z,2.80
2023-05-14T18:09:00.208Z,3.20
2023-05-14T18:14:03.387Z,3.90
2023-05-14T18:19:06.471Z,3.00
2023-05-14T18:24:09.465Z,2.70
2023-05-14T18:29:12.301Z,2.80
2023-05-14T18:34:15.293Z,3.80
2023-05-14T18:39:18.171Z,3.10
2023-05-14T18:44:21.772Z,2.50
2023-05-14T18:49:24.680Z,2.60
2023-05-14T18:54:27.624Z,2.30
2023-05-14T18:59:30.690Z,2.70
2023-05-14T19:04:44.308Z,3.60
2023-05-14T19:09:53.962Z,3.40
2023-05-14T19:14:56.819Z,4.80
2023-05-14T19:20:00.027Z,5.90
2023-05-14T19:25:03.729Z,8.10
2023-05-14T19:30:08.897Z,6.40
2023-05-14T19:35:12.216Z,10.10
2023-05-14T19:40:15.317Z,14.90
2023-05-14T19:45:18.281Z,12.20
2023-05-14T19:50:21.181Z,11.00
2023-05-14T19:55:24.360Z,8.90
2023-05-14T20:00:31.937Z,7.50
2023-05-14T20:05:35.390Z,7.80
2023-05-14T20:10:38.922Z,7.50
2023-05-14T20:15:43.144Z,8.70
2023-05-14T20:20:46.067Z,8.80
2023-05-14T20:25:49.013Z,8.80
2023-05-14T20:30:52.390Z,8.80
2023-05-14T20:35:55.513Z,12.40
2023-05-14T20:40:58.571Z,13.10
2023-05-14T20:46:01.573Z,10.70
2023-05-14T20:51:06.541Z,11.50
2023-05-14T20:56:09.602Z,12.40
2023-05-14T21:01:12.552Z,9.00
2023-05-14T21:06:15.459Z,9.50
2023-05-14T21:11:18.328Z,9.30
2023-05-14T21:16:21.792Z,9.20
2023-05-14T21:21:24.760Z,6.70
2023-05-14T21:26:31.810Z,7.40
2023-05-14T21:31:34.675Z,7.60
2023-05-14T21:36:37.854Z,7.30
2023-05-14T21:41:40.668Z,8.00
2023-05-14T21:46:43.536Z,9.20
2023-05-14T21:51:46.856Z,8.20
2023-05-14T21:56:49.854Z,8.30
2023-05-14T22:02:06.361Z,6.90
2023-05-14T22:07:10.792Z,8.50
2023-05-14T22:12:13.733Z,7.90
2023-05-14T22:17:16.835Z,7.40
2023-05-14T22:22:19.732Z,7.10
2023-05-14T22:27:23.033Z,7.80
2023-05-14T22:32:26.487Z,8.50
2023-05-14T22:37:29.413Z,8.80
2023-05-14T22:42:32.246Z,7.40
2023-05-14T22:47:35.137Z,7.30
2023-05-14T22:52:39.510Z,6.90
2023-05-14T22:57:42.443Z,6.40
2023-05-14T23:02:45.458Z,6.40
2023-05-14T23:07:48.446Z,7.90
2023-05-14T23:12:51.342Z,6.90
2023-05-14T23:17:54.328Z,6.80
2023-05-14T23:22:57.303Z,6.80
2023-05-14T23:28:00.464Z,6.60
2023-05-14T23:33:03.410Z,6.40
2023-05-14T23:38:07.461Z,6.50
2023-05-14T23:43:10.287Z,6.20
2023-05-14T23:48:13.152Z,6.30
2023-05-14T23:53:16.074Z,5.30
2023-05-14T23:58:18.984Z,5.70
